createdAt,value
2023-04-04T05:01:00.093Z,-1.80
2023-04-04T05:03:35.616Z,-1.79
2023-04-04T05:06:06.734Z,-1.82
2023-04-04T05:08:35.825Z,-1.80
2023-04-04T05:11:09.425Z,-1.81
2023-04-04T05:13:37.765Z,-1.86
2023-04-04T05:16:05.692Z,-1.83
2023-04-04T05:18:34.712Z,-1.83
2023-04-04T05:21:02.687Z,-1.82
2023-04-04T05:23:30.747Z,-1.85
2023-04-04T05:25:57.496Z,-1.84
2023-04-04T05:28:29.187Z,-1.85
2023-04-04T05:31:00.307Z,-1.86
2023-04-04T05:33:30.556Z,-1.83
2023-04-04T05:36:23.463Z,-1.84
2023-04-04T05:38:56.322Z,-1.79
2023-04-04T05:41:26.374Z,-1.71
2023-04-04T05:44:00.255Z,-1.70
2023-04-04T05:46:27.722Z,-1.61
2023-04-04T05:48:55.086Z,-1.65
2023-04-04T05:51:23.070Z,-1.61
2023-04-04T05:54:07.955Z,-1.56
2023-04-04T05:56:35.651Z,-1.45
2023-04-04T05:59:06.529Z,-1.45
2023-04-04T06:01:41.184Z,-1.38
2023-04-04T06:04:14.089Z,-1.32
2023-04-04T06:06:41.866Z,-1.30
2023-04-04T06:09:09.196Z,-1.24
2023-04-04T06:11:36.815Z,-1.14
2023-04-04T06:14:08.329Z,-1.05
2023-04-04T06:16:36.712Z,-0.93
2023-04-04T06:19:03.422Z,-0.76
2023-04-04T06:21:31.609Z,-0.70
2023-04-04T06:23:58.708Z,-0.65
2023-04-04T06:26:27.323Z,-0.48
2023-04-04T06:28:56.118Z,-0.38
2023-04-04T06:31:33.455Z,-0.26
2023-04-04T06:34:07.834Z,-0.08
2023-04-04T06:36:48.383Z,-0.01
2023-04-04T06:39:15.617Z,0.13
2023-04-04T06:41:44.753Z,0.24
2023-04-04T06:44:13.494Z,0.38
2023-04-04T06:46:41.944Z,0.65
2023-04-04T06:49:08.499Z,0.84
2023-04-04T06:51:36.788Z,1.11
2023-04-04T06:54:03.609Z,1.32
2023-04-04T06:56:30.829Z,1.51
2023-04-04T06:58:57.517Z,1.72
2023-04-04T07:01:24.964Z,1.94
2023-04-04T07:03:54.718Z,2.18
2023-04-04T07:06:25.921Z,2.47
2023-04-04T07:08:52.960Z,2.75
2023-04-04T07:11:20.491Z,3.01
2023-04-04T07:13:47.187Z,3.33
2023-04-04T07:16:14.813Z,3.61
2023-04-04T07:18:41.437Z,3.83
2023-04-04T07:21:08.772Z,4.14
2023-04-04T07:23:37.635Z,4.44
2023-04-04T07:26:05.368Z,4.71
2023-04-04T07:28:32.477Z,4.82
2023-04-04T07:31:02.572Z,5.18
2023-04-04T07:34:20.642Z,5.62
2023-04-04T07:36:48.968Z,5.93
2023-04-04T07:39:15.787Z,6.20
2023-04-04T07:41:44.294Z,6.46
2023-04-04T07:44:11.549Z,6.68
2023-04-04T07:46:39.296Z,6.94
2023-04-04T07:49:06.452Z,7.14
2023-04-04T07:51:35.737Z,7.26
2023-04-04T07:54:02.472Z,7.30
2023-04-04T07:56:30.074Z,7.33
2023-04-04T07:58:56.811Z,7.18
2023-04-04T08:01:24.180Z,7.17
2023-04-04T08:03:53.407Z,7.17
2023-04-04T08:06:21.077Z,7.03
2023-04-04T08:08:48.393Z,6.75
2023-04-04T08:11:15.843Z,6.82
2023-04-04T08:13:42.655Z,6.78
2023-04-04T08:16:10.026Z,6.87
2023-04-04T08:18:36.651Z,6.93
2023-04-04T08:21:03.926Z,7.02
2023-04-04T08:23:30.930Z,6.99
2023-04-04T08:26:00.272Z,7.08
2023-04-04T08:28:30.038Z,7.23
2023-04-04T08:30:57.347Z,7.42
2023-04-04T08:33:37.249Z,7.46
2023-04-04T08:36:11.810Z,7.39
2023-04-04T08:38:38.458Z,7.18
2023-04-04T08:41:05.761Z,7.13
2023-04-04T08:43:34.373Z,6.91
2023-04-04T08:46:04.547Z,6.84
2023-04-04T08:48:33.513Z,7.01
2023-04-04T08:51:02.200Z,7.15
2023-04-04T08:53:29.556Z,7.14
2023-04-04T08:56:00.280Z,7.09
2023-04-04T08:58:27.502Z,7.16
2023-04-04T09:00:55.967Z,7.19
2023-04-04T09:03:27.695Z,7.13
2023-04-04T09:05:56.228Z,7.03
2023-04-04T09:08:25.997Z,6.99
2023-04-04T09:10:54.301Z,6.86
2023-04-04T09:13:21.384Z,6.77
2023-04-04T09:15:54.463Z,6.86
2023-04-04T09:18:21.148Z,6.77
2023-04-04T09:20:48.967Z,6.74
2023-04-04T09:23:20.825Z,6.43
2023-04-04T09:26:03.271Z,6.48
2023-04-04T09:28:32.875Z,6.49
2023-04-04T09:31:06.136Z,6.42
2023-04-04T09:33:33.487Z,6.51
2023-04-04T09:36:08.179Z,6.69
2023-04-04T09:38:37.802Z,6.85
2023-04-04T09:41:08.094Z,6.82
2023-04-04T09:43:35.659Z,6.91
2023-04-04T09:46:03.811Z,7.12
2023-04-04T09:48:35.109Z,7.26
2023-04-04T09:51:06.182Z,7.27
2023-04-04T09:53:37.220Z,7.50
2023-04-04T09:56:04.874Z,7.67
2023-04-04T09:58:40.395Z,7.78
2023-04-04T10:01:13.034Z,7.92
2023-04-04T10:03:39.871Z,8.17
2023-04-04T10:06:08.443Z,8.25
2023-04-04T10:08:39.389Z,8.28
2023-04-04T10:11:11.187Z,8.60
2023-04-04T10:13:41.793Z,8.87
2023-04-04T10:16:11.284Z,8.90
2023-04-04T10:18:39.070Z,8.94
2023-04-04T10:23:41.282Z,8.97
2023-04-04T10:26:08.517Z,9.32
2023-04-04T10:28:35.310Z,9.31
2023-04-04T10:31:14.740Z,9.53
2023-04-04T10:33:54.033Z,9.68
2023-04-04T10:36:28.182Z,9.46
2023-04-04T10:39:22.669Z,9.31
2023-04-04T10:41:51.561Z,9.24
2023-04-04T10:44:33.578Z,9.15
2023-04-04T10:47:09.277Z,9.14
2023-04-04T10:49:37.892Z,9.34
2023-04-04T10:52:05.940Z,9.57
2023-04-04T10:54:33.787Z,9.29
2023-04-04T10:57:04.243Z,9.31
2023-04-04T10:59:31.102Z,9.52
2023-04-04T11:02:02.662Z,9.33
2023-04-04T11:04:34.880Z,9.41
2023-04-04T11:07:12.277Z,9.45
2023-04-04T11:09:55.953Z,9.54
2023-04-04T11:12:38.582Z,9.86
2023-04-04T11:15:10.252Z,10.00
2023-04-04T11:17:48.897Z,10.09
2023-04-04T11:20:17.679Z,10.21
2023-04-04T11:23:33.943Z,10.44
2023-04-04T11:26:36.702Z,10.57
2023-04-04T11:29:04.719Z,10.58
2023-04-04T11:31:43.919Z,10.49
2023-04-04T11:34:16.771Z,10.42
2023-04-04T11:36:44.941Z,9.93
2023-04-04T11:39:21.234Z,9.64
2023-04-04T11:41:49.984Z,9.82
2023-04-04T11:44:17.937Z,10.02
2023-04-04T11:46:51.022Z,9.98
2023-04-04T11:49:18.923Z,10.07
2023-04-04T11:51:45.831Z,9.87
2023-04-04T11:54:18.805Z,10.04
2023-04-04T11:56:45.908Z,10.18
2023-04-04T11:59:14.336Z,10.20
2023-04-04T12:01:41.453Z,10.36
2023-04-04T12:04:10.170Z,10.62
2023-04-04T12:06:40.084Z,10.67
2023-04-04T12:09:07.397Z,10.61
2023-04-04T12:11:34.753Z,10.48
2023-04-04T12:14:01.978Z,10.72
2023-04-04T12:16:29.133Z,10.73
2023-04-04T12:19:01.038Z,10.72
2023-04-04T12:21:27.759Z,10.80
2023-04-04T12:23:56.667Z,10.80
2023-04-04T12:26:23.972Z,10.73
2023-04-04T12:28:53.087Z,10.78
2023-04-04T12:31:21.322Z,10.45
2023-04-04T12:33:48.826Z,10.30
2023-04-04T12:36:16.264Z,10.31
2023-04-04T12:39:06.066Z,10.21
2023-04-04T12:41:36.815Z,10.20
2023-04-04T12:44:06.174Z,10.37
2023-04-04T12:46:39.968Z,10.64
2023-04-04T12:49:10.034Z,10.62
2023-04-04T12:51:37.417Z,10.26
2023-04-04T12:54:08.073Z,10.16
2023-04-04T12:56:36.984Z,10.09
2023-04-04T12:59:05.281Z,10.04
2023-04-04T13:01:33.178Z,10.00
2023-04-04T13:04:05.789Z,9.91
2023-04-04T13:06:32.980Z,9.82
2023-04-04T13:09:00.412Z,9.62
2023-04-04T13:11:55.924Z,9.55
2023-04-04T13:14:23.158Z,9.45
2023-04-04T13:17:10.318Z,9.46
2023-04-04T13:19:37.640Z,9.28
2023-04-04T13:22:08.797Z,9.26
2023-04-04T13:24:36.068Z,9.24
2023-04-04T13:27:02.714Z,9.26
2023-04-04T13:29:30.005Z,9.40
2023-04-04T13:31:57.116Z,9.42
2023-04-04T13:34:24.748Z,9.25
2023-04-04T13:36:51.551Z,9.18
2023-04-04T13:39:19.073Z,9.16
2023-04-04T13:41:45.741Z,9.08
2023-04-04T13:44:14.890Z,8.97
2023-04-04T13:46:42.409Z,8.84
2023-04-04T13:49:11.234Z,8.78
2023-04-04T13:51:38.366Z,8.72
2023-04-04T13:54:05.545Z,8.70
2023-04-04T13:56:32.106Z,8.65
2023-04-04T13:58:59.363Z,8.50
2023-04-04T14:01:26.340Z,8.48
2023-04-04T14:03:53.659Z,8.51
2023-04-04T14:06:20.329Z,8.46
2023-04-04T14:08:47.945Z,8.41
2023-04-04T14:11:15.899Z,8.39
2023-04-04T14:13:43.114Z,8.38
2023-04-04T14:16:10.331Z,8.34
2023-04-04T14:18:37.718Z,8.27
2023-04-04T14:21:05.399Z,8.24
2023-04-04T14:23:33.268Z,8.24
2023-04-04T14:25:59.946Z,8.23
2023-04-04T14:28:28.390Z,8.19
2023-04-04T14:30:55.015Z,8.03
2023-04-04T14:33:22.559Z,8.01
2023-04-04T14:35:49.246Z,7.99
2023-04-04T14:38:16.690Z,7.97
2023-04-04T14:40:43.711Z,7.94
2023-04-04T14:43:10.614Z,7.90
2023-04-04T14:45:38.286Z,7.83
2023-04-04T14:48:05.211Z,7.82
2023-04-04T14:50:32.616Z,7.81
2023-04-04T14:52:59.211Z,7.79
2023-04-04T14:55:27.339Z,7.76
2023-04-04T15:00:24.275Z,7.71
2023-04-04T15:02:51.642Z,7.72
2023-04-04T15:05:19.220Z,7.78
2023-04-04T15:07:47.188Z,7.80
2023-04-04T15:10:14.131Z,7.75
2023-04-04T15:12:41.117Z,7.71
2023-04-04T15:15:08.408Z,7.69
2023-04-04T15:17:35.400Z,7.68
2023-04-04T15:20:02.080Z,7.67
2023-04-04T15:22:29.003Z,7.63
2023-04-04T15:24:57.485Z,7.65
2023-04-04T15:27:24.107Z,7.63
2023-04-04T15:29:51.747Z,7.63
2023-04-04T15:32:18.521Z,7.60
2023-04-04T15:34:45.910Z,7.58
2023-04-04T15:37:12.649Z,7.54
2023-04-04T15:39:51.887Z,7.53
2023-04-04T15:42:20.534Z,7.53
2023-04-04T15:44:47.113Z,7.51
2023-04-04T15:47:16.316Z,7.47
2023-04-04T15:49:42.897Z,7.50
2023-04-04T15:52:09.824Z,7.45
2023-04-04T15:54:37.072Z,7.50
2023-04-04T15:57:03.733Z,7.53
2023-04-04T15:59:33.751Z,7.51
2023-04-04T16:02:00.427Z,7.55
2023-04-04T16:04:27.654Z,7.57
2023-04-04T16:06:54.231Z,7.58
2023-04-04T16:09:21.630Z,7.61
2023-04-04T16:11:48.497Z,7.62
2023-04-04T16:14:15.448Z,7.62
2023-04-04T16:16:42.220Z,7.60
2023-04-04T16:19:09.363Z,7.56
2023-04-04T16:21:36.005Z,7.55
2023-04-04T16:24:05.361Z,7.53
2023-04-04T16:26:32.024Z,7.50
2023-04-04T16:28:59.271Z,7.43
2023-04-04T16:31:25.911Z,7.37
2023-04-04T16:33:53.191Z,7.39
2023-04-04T16:36:20.078Z,7.34
2023-04-04T16:38:47.142Z,7.28
2023-04-04T16:41:13.885Z,7.25
2023-04-04T16:43:41.159Z,7.20
2023-04-04T16:46:07.778Z,7.18
2023-04-04T16:48:35.163Z,7.11
2023-04-04T16:51:02.299Z,7.00
2023-04-04T16:53:29.615Z,6.94
2023-04-04T16:55:56.231Z,6.89
2023-04-04T16:58:23.493Z,6.86
2023-04-04T17:00:50.103Z,6.80
2023-04-04T17:03:17.506Z,6.76
2023-04-04T17:05:44.096Z,6.71
2023-04-04T17:08:11.733Z,6.68
2023-04-04T17:10:40.610Z,6.66
2023-04-04T17:13:08.157Z,6.64
2023-04-04T17:15:35.080Z,6.58
2023-04-04T17:18:02.481Z,6.54
2023-04-04T17:20:30.299Z,6.53
2023-04-04T17:22:58.921Z,6.51
2023-04-04T17:25:29.193Z,6.48
2023-04-04T17:27:56.904Z,6.45
2023-04-04T17:30:23.686Z,6.44
2023-04-04T17:32:52.720Z,6.41
2023-04-04T17:35:19.554Z,6.37
2023-04-04T17:37:46.804Z,6.31
2023-04-04T17:40:13.741Z,6.25
2023-04-04T17:42:41.351Z,6.23
2023-04-04T17:45:09.225Z,6.19
2023-04-04T17:47:36.160Z,6.11
2023-04-04T17:50:03.004Z,6.08
2023-04-04T17:52:30.287Z,6.04
2023-04-04T17:54:56.878Z,6.02
2023-04-04T17:57:24.105Z,5.93
2023-04-04T17:59:51.182Z,5.91
2023-04-04T18:02:19.035Z,5.89
2023-04-04T18:04:47.192Z,5.85
2023-04-04T18:07:14.636Z,5.80
2023-04-04T18:09:41.744Z,5.76
2023-04-04T18:12:09.857Z,5.71
2023-04-04T18:14:36.700Z,5.68
2023-04-04T18:17:04.343Z,5.61
2023-04-04T18:19:31.689Z,5.57
2023-04-04T18:22:00.372Z,5.52
2023-04-04T18:24:27.988Z,5.45
2023-04-04T18:26:56.935Z,5.41
2023-04-04T18:29:24.951Z,5.37
2023-04-04T18:31:52.659Z,5.36
2023-04-04T18:34:19.284Z,5.31
2023-04-04T18:36:48.823Z,5.27
2023-04-04T18:39:17.229Z,5.19
2023-04-04T18:41:47.266Z,5.14
2023-04-04T18:44:14.439Z,5.09
2023-04-04T18:46:41.671Z,5.07
2023-04-04T18:49:08.505Z,5.02
2023-04-04T18:51:36.048Z,4.95
2023-04-04T18:54:03.385Z,4.88
2023-04-04T18:56:30.878Z,4.85
2023-04-04T18:58:57.488Z,4.80
2023-04-04T19:01:25.003Z,4.75
2023-04-04T19:03:53.766Z,4.72
2023-04-04T19:06:26.948Z,4.67
2023-04-04T19:08:57.613Z,4.59
2023-04-04T19:11:25.833Z,4.57
2023-04-04T19:13:52.674Z,4.54
2023-04-04T19:16:20.064Z,4.50
2023-04-04T19:18:46.655Z,4.50
2023-04-04T19:21:13.887Z,4.43
2023-04-04T19:23:40.837Z,4.38
2023-04-04T19:26:08.361Z,4.36
2023-04-04T19:28:35.152Z,4.32
2023-04-04T19:31:04.693Z,4.29
2023-04-04T19:33:33.190Z,4.25
2023-04-04T19:36:10.148Z,4.22
2023-04-04T19:38:40.011Z,4.19
2023-04-04T19:41:16.686Z,4.15
2023-04-04T19:43:45.531Z,4.10
2023-04-04T19:46:26.037Z,4.09
2023-04-04T19:48:54.230Z,4.04
2023-04-04T19:51:21.077Z,4.00
2023-04-04T19:53:55.875Z,3.97
2023-04-04T19:56:26.282Z,3.91
2023-04-04T19:58:54.548Z,3.87
2023-04-04T20:01:28.208Z,3.82
2023-04-04T20:04:08.112Z,3.77
2023-04-04T20:06:37.099Z,3.75
2023-04-04T20:09:32.706Z,3.72
2023-04-04T20:11:59.844Z,3.69
2023-04-04T20:14:27.091Z,3.65
2023-04-04T20:16:55.576Z,3.63
2023-04-04T20:19:25.763Z,3.60
2023-04-04T20:21:53.017Z,3.58
2023-04-04T20:24:21.089Z,3.59
2023-04-04T20:26:55.538Z,3.56
2023-04-04T20:29:28.680Z,3.55
